sensor_id;sensor_type;location;lat;lon;timestamp;temperature;humidity
49124;DHT22;48506;48.202;16.274;2024-01-15T00:00:44;0.40;94.00
49124;DHT22;48506;48.202;16.274;2024-01-15T00:03:09;0.40;93.90
49124;DHT22;48506;48.202;16.274;2024-01-15T00:05:36;0.40;94.00
49124;DHT22;48506;48.202;16.274;2024-01-15T00:08:02;0.40;93.80
49124;DHT22;48506;48.202;16.274;2024-01-15T00:10:31;0.40;93.80
49124;DHT22;48506;48.202;16.274;2024-01-15T00:12:57;0.40;93.80
49124;DHT22;48506;48.202;16.274;2024-01-15T00:15:22;0.40;93.90
49124;DHT22;48506;48.202;16.274;2024-01-15T00:17:49;0.40;93.90
49124;DHT22;48506;48.202;16.274;2024-01-15T00:20:15;0.30;93.80
49124;DHT22;48506;48.202;16.274;2024-01-15T00:22:41;0.30;94.00
49124;DHT22;48506;48.202;16.274;2024-01-15T00:25:06;0.30;94.00
49124;DHT22;48506;48.202;16.274;2024-01-15T00:27:32;0.20;93.90
49124;DHT22;48506;48.202;16.274;2024-01-15T00:29:58;0.20;93.90
49124;DHT22;48506;48.202;16.274;2024-01-15T00:32:24;0.10;94.10
49124;DHT22;48506;48.202;16.274;2024-01-15T00:34:50;0.10;94.10
49124;DHT22;48506;48.202;16.274;2024-01-15T00:37:16;0.10;94.20
49124;DHT22;48506;48.202;16.274;2024-01-15T00:39:42;0.10;94.20
49124;DHT22;48506;48.202;16.274;2024-01-15T00:42:08;0.10;94.20
49124;DHT22;48506;48.202;16.274;2024-01-15T00:44:34;0.10;94.30
49124;DHT22;48506;48.202;16.274;2024-01-15T00:47:00;0.10;94.40
49124;DHT22;48506;48.202;16.274;2024-01-15T00:49:27;0.10;94.50
49124;DHT22;48506;48.202;16.274;2024-01-15T00:51:53;0.20;94.40
49124;DHT22;48506;48.202;16.274;2024-01-15T00:54:19;0.30;94.40
49124;DHT22;48506;48.202;16.274;2024-01-15T00:56:45;0.40;94.20
49124;DHT22;48506;48.202;16.274;2024-01-15T00:59:10;0.50;94.10
49124;DHT22;48506;48.202;16.274;2024-01-15T01:01:41;0.50;93.90
49124;DHT22;48506;48.202;16.274;2024-01-15T01:04:09;0.60;93.80
49124;DHT22;48506;48.202;16.274;2024-01-15T01:06:35;0.60;93.80
49124;DHT22;48506;48.202;16.274;2024-01-15T01:09:01;0.60;93.90
49124;DHT22;48506;48.202;16.274;2024-01-15T01:11:27;0.60;93.80
49124;DHT22;48506;48.202;16.274;2024-01-15T01:13:53;0.60;93.80
49124;DHT22;48506;48.202;16.274;2024-01-15T01:16:19;0.60;93.90
49124;DHT22;48506;48.202;16.274;2024-01-15T01:18:45;0.60;93.90
49124;DHT22;48506;48.202;16.274;2024-01-15T01:21:11;0.50;93.90
49124;DHT22;48506;48.202;16.274;2024-01-15T01:23:37;0.50;93.90
49124;DHT22;48506;48.202;16.274;2024-01-15T01:26:03;0.40;94.10
49124;DHT22;48506;48.202;16.274;2024-01-15T01:28:29;0.40;94.00
49124;DHT22;48506;48.202;16.274;2024-01-15T01:30:54;0.40;94.10
49124;DHT22;48506;48.202;16.274;2024-01-15T01:33:20;0.40;94.10
49124;DHT22;48506;48.202;16.274;2024-01-15T01:35:46;0.40;94.00
49124;DHT22;48506;48.202;16.274;2024-01-15T01:38:13;0.30;94.00
49124;DHT22;48506;48.202;16.274;2024-01-15T01:40:39;0.20;94.00
49124;DHT22;48506;48.202;16.274;2024-01-15T01:43:09;0.20;94.10
49124;DHT22;48506;48.202;16.274;2024-01-15T01:45:36;0.20;94.20
49124;DHT22;48506;48.202;16.274;2024-01-15T01:48:02;0.20;94.30
49124;DHT22;48506;48.202;16.274;2024-01-15T01:50:30;0.20;94.30
49124;DHT22;48506;48.202;16.274;2024-01-15T01:52:57;0.20;94.30
49124;DHT22;48506;48.202;16.274;2024-01-15T01:55:26;0.20;94.50
49124;DHT22;48506;48.202;16.274;2024-01-15T01:57:53;0.20;94.50
49124;DHT22;48506;48.202;16.274;2024-01-15T02:00:20;0.10;94.40
49124;DHT22;48506;48.202;16.274;2024-01-15T02:02:46;0.20;94.60
49124;DHT22;48506;48.202;16.274;2024-01-15T02:05:13;0.20;94.50
49124;DHT22;48506;48.202;16.274;2024-01-15T02:07:41;0.20;94.40
49124;DHT22;48506;48.202;16.274;2024-01-15T02:10:07;0.20;94.40
49124;DHT22;48506;48.202;16.274;2024-01-15T02:12:33;0.20;94.30
49124;DHT22;48506;48.202;16.274;2024-01-15T02:14:59;0.20;94.50
49124;DHT22;48506;48.202;16.274;2024-01-15T02:17:25;0.30;94.50
49124;DHT22;48506;48.202;16.274;2024-01-15T02:19:51;0.30;94.50
49124;DHT22;48506;48.202;16.274;2024-01-15T02:22:16;0.30;94.40
49124;DHT22;48506;48.202;16.274;2024-01-15T02:24:42;0.30;94.40
49124;DHT22;48506;48.202;16.274;2024-01-15T02:27:12;0.40;94.20
49124;DHT22;48506;48.202;16.274;2024-01-15T02:29:38;0.50;94.00
49124;DHT22;48506;48.202;16.274;2024-01-15T02:32:09;0.50;93.80
49124;DHT22;48506;48.202;16.274;2024-01-15T02:34:34;0.60;93.70
49124;DHT22;48506;48.202;16.274;2024-01-15T02:37:00;0.70;93.30
49124;DHT22;48506;48.202;16.274;2024-01-15T02:39:26;0.80;93.30
49124;DHT22;48506;48.202;16.274;2024-01-15T02:41:52;0.90;93.10
49124;DHT22;48506;48.202;16.274;2024-01-15T02:44:18;0.90;92.90
49124;DHT22;48506;48.202;16.274;2024-01-15T02:46:44;1.00;92.50
49124;DHT22;48506;48.202;16.274;2024-01-15T02:49:10;1.00;92.50
49124;DHT22;48506;48.202;16.274;2024-01-15T02:51:36;1.10;92.20
49124;DHT22;48506;48.202;16.274;2024-01-15T02:54:02;1.10;92.30
49124;DHT22;48506;48.202;16.274;2024-01-15T02:56:28;1.20;92.00
49124;DHT22;48506;48.202;16.274;2024-01-15T02:58:54;1.30;91.80
49124;DHT22;48506;48.202;16.274;2024-01-15T03:01:20;1.40;91.60
49124;DHT22;48506;48.202;16.274;2024-01-15T03:03:45;1.40;91.70
49124;DHT22;48506;48.202;16.274;2024-01-15T03:06:12;1.50;91.20
49124;DHT22;48506;48.202;16.274;2024-01-15T03:08:38;1.50;91.30
49124;DHT22;48506;48.202;16.274;2024-01-15T03:11:03;1.60;91.20
49124;DHT22;48506;48.202;16.274;2024-01-15T03:13:29;1.60;91.00
49124;DHT22;48506;48.202;16.274;2024-01-15T03:15:55;1.80;90.90
49124;DHT22;48506;48.202;16.274;2024-01-15T03:18:21;1.80;90.90
49124;DHT22;48506;48.202;16.274;2024-01-15T03:20:47;1.80;91.00
49124;DHT22;48506;48.202;16.274;2024-01-15T03:23:13;1.80;91.10
49124;DHT22;48506;48.202;16.274;2024-01-15T03:25:39;1.80;91.10
49124;DHT22;48506;48.202;16.274;2024-01-15T03:28:05;1.90;90.90
49124;DHT22;48506;48.202;16.274;2024-01-15T03:30:31;1.90;91.00
49124;DHT22;48506;48.202;16.274;2024-01-15T03:32:56;1.90;90.90
49124;DHT22;48506;48.202;16.274;2024-01-15T03:35:22;1.90;91.00
49124;DHT22;48506;48.202;16.274;2024-01-15T03:37:48;1.90;90.90
49124;DHT22;48506;48.202;16.274;2024-01-15T03:40:14;1.90;91.00
49124;DHT22;48506;48.202;16.274;2024-01-15T03:42:40;1.90;91.00
49124;DHT22;48506;48.202;16.274;2024-01-15T03:45:06;1.90;91.10
49124;DHT22;48506;48.202;16.274;2024-01-15T03:47:31;1.90;91.20
49124;DHT22;48506;48.202;16.274;2024-01-15T03:49:57;1.80;91.20
49124;DHT22;48506;48.202;16.274;2024-01-15T03:52:23;1.80;91.40
49124;DHT22;48506;48.202;16.274;2024-01-15T03:54:49;1.70;91.50
49124;DHT22;48506;48.202;16.274;2024-01-15T03:57:15;1.70;91.60
49124;DHT22;48506;48.202;16.274;2024-01-15T03:59:41;1.60;91.70
49124;DHT22;48506;48.202;16.274;2024-01-15T04:02:07;1.60;91.60
49124;DHT22;48506;48.202;16.274;2024-01-15T04:04:33;1.60;91.70
49124;DHT22;48506;48.202;16.274;2024-01-15T04:06:59;1.60;91.80
49124;DHT22;48506;48.202;16.274;2024-01-15T04:09:25;1.60;91.80
49124;DHT22;48506;48.202;16.274;2024-01-15T04:11:51;1.60;91.80
49124;DHT22;48506;48.202;16.274;2024-01-15T04:14:17;1.70;91.80
49124;DHT22;48506;48.202;16.274;2024-01-15T04:16:43;1.70;91.70
49124;DHT22;48506;48.202;16.274;2024-01-15T04:19:09;1.70;91.80
49124;DHT22;48506;48.202;16.274;2024-01-15T04:21:34;1.70;91.80
49124;DHT22;48506;48.202;16.274;2024-01-15T04:24:00;1.80;91.70
49124;DHT22;48506;48.202;16.274;2024-01-15T04:26:26;1.80;91.60
49124;DHT22;48506;48.202;16.274;2024-01-15T04:28:52;1.90;91.60
49124;DHT22;48506;48.202;16.274;2024-01-15T04:31:25;2.00;91.60
49124;DHT22;48506;48.202;16.274;2024-01-15T04:33:52;2.00;91.70
49124;DHT22;48506;48.202;16.274;2024-01-15T04:36:18;2.00;91.70
49124;DHT22;48506;48.202;16.274;2024-01-15T04:38:45;2.00;91.70
49124;DHT22;48506;48.202;16.274;2024-01-15T04:41:14;2.00;91.60
49124;DHT22;48506;48.202;16.274;2024-01-15T04:43:40;1.90;91.80
49124;DHT22;48506;48.202;16.274;2024-01-15T04:46:06;1.90;92.00
49124;DHT22;48506;48.202;16.274;2024-01-15T04:48:33;1.80;92.00
49124;DHT22;48506;48.202;16.274;2024-01-15T04:50:59;1.80;92.00
49124;DHT22;48506;48.202;16.274;2024-01-15T04:53:26;1.70;92.10
49124;DHT22;48506;48.202;16.274;2024-01-15T04:55:52;1.70;92.10
49124;DHT22;48506;48.202;16.274;2024-01-15T04:58:18;1.70;92.20
49124;DHT22;48506;48.202;16.274;2024-01-15T05:00:44;1.70;92.20
49124;DHT22;48506;48.202;16.274;2024-01-15T05:03:10;1.60;92.30
49124;DHT22;48506;48.202;16.274;2024-01-15T05:05:35;1.60;92.20
49124;DHT22;48506;48.202;16.274;2024-01-15T05:08:01;1.60;92.20
49124;DHT22;48506;48.202;16.274;2024-01-15T05:10:28;1.60;92.10
49124;DHT22;48506;48.202;16.274;2024-01-15T05:12:54;1.50;92.50
49124;DHT22;48506;48.202;16.274;2024-01-15T05:15:20;1.50;92.20
49124;DHT22;48506;48.202;16.274;2024-01-15T05:17:45;1.50;92.20
49124;DHT22;48506;48.202;16.274;2024-01-15T05:20:11;1.50;92.00
49124;DHT22;48506;48.202;16.274;2024-01-15T05:22:37;1.60;92.00
49124;DHT22;48506;48.202;16.274;2024-01-15T05:25:03;1.60;91.90
49124;DHT22;48506;48.202;16.274;2024-01-15T05:27:29;1.60;91.80
49124;DHT22;48506;48.202;16.274;2024-01-15T05:29:55;1.60;91.70
49124;DHT22;48506;48.202;16.274;2024-01-15T05:32:20;1.60;91.60
49124;DHT22;48506;48.202;16.274;2024-01-15T05:34:46;1.50;91.70
49124;DHT22;48506;48.202;16.274;2024-01-15T05:37:13;1.50;91.70
49124;DHT22;48506;48.202;16.274;2024-01-15T05:39:39;1.60;91.50
49124;DHT22;48506;48.202;16.274;2024-01-15T05:42:05;1.50;91.60
49124;DHT22;48506;48.202;16.274;2024-01-15T05:44:31;1.50;91.70
49124;DHT22;48506;48.202;16.274;2024-01-15T05:46:56;1.40;91.70
49124;DHT22;48506;48.202;16.274;2024-01-15T05:49:22;1.40;91.70
49124;DHT22;48506;48.202;16.274;2024-01-15T05:51:48;1.40;91.60
49124;DHT22;48506;48.202;16.274;2024-01-15T05:54:14;1.50;91.60
49124;DHT22;48506;48.202;16.274;2024-01-15T05:56:40;1.50;91.60
49124;DHT22;48506;48.202;16.274;2024-01-15T05:59:06;1.50;91.60
49124;DHT22;48506;48.202;16.274;2024-01-15T06:01:32;1.50;91.60
49124;DHT22;48506;48.202;16.274;2024-01-15T06:03:57;1.50;91.70
49124;DHT22;48506;48.202;16.274;2024-01-15T06:06:23;1.60;91.80
49124;DHT22;48506;48.202;16.274;2024-01-15T06:08:49;1.60;91.80
49124;DHT22;48506;48.202;16.274;2024-01-15T06:11:15;1.60;91.80
49124;DHT22;48506;48.202;16.274;2024-01-15T06:13:41;1.60;91.80
49124;DHT22;48506;48.202;16.274;2024-01-15T06:16:16;1.70;91.80
49124;DHT22;48506;48.202;16.274;2024-01-15T06:18:42;1.60;91.90
49124;DHT22;48506;48.202;16.274;2024-01-15T06:21:08;1.70;92.10
49124;DHT22;48506;48.202;16.274;2024-01-15T06:23:37;1.60;91.90
49124;DHT22;48506;48.202;16.274;2024-01-15T06:26:03;1.60;92.00
49124;DHT22;48506;48.202;16.274;2024-01-15T06:28:29;1.50;92.10
49124;DHT22;48506;48.202;16.274;2024-01-15T06:30:55;1.60;92.10
49124;DHT22;48506;48.202;16.274;2024-01-15T06:33:21;1.50;92.20
49124;DHT22;48506;48.202;16.274;2024-01-15T06:35:47;1.60;92.20
49124;DHT22;48506;48.202;16.274;2024-01-15T06:38:13;1.50;92.30
49124;DHT22;48506;48.202;16.274;2024-01-15T06:40:39;1.50;92.20
49124;DHT22;48506;48.202;16.274;2024-01-15T06:43:07;1.50;92.30
49124;DHT22;48506;48.202;16.274;2024-01-15T06:45:33;1.50;92.60
49124;DHT22;48506;48.202;16.274;2024-01-15T06:47:58;1.40;92.40
49124;DHT22;48506;48.202;16.274;2024-01-15T06:50:24;1.40;92.50
49124;DHT22;48506;48.202;16.274;2024-01-15T06:52:50;1.50;92.40
49124;DHT22;48506;48.202;16.274;2024-01-15T06:55:16;1.50;92.40
49124;DHT22;48506;48.202;16.274;2024-01-15T06:57:42;1.50;92.70
49124;DHT22;48506;48.202;16.274;2024-01-15T07:00:09;1.50;92.40
49124;DHT22;48506;48.202;16.274;2024-01-15T07:02:36;1.50;92.40
49124;DHT22;48506;48.202;16.274;2024-01-15T07:05:01;1.40;92.30
49124;DHT22;48506;48.202;16.274;2024-01-15T07:07:30;1.50;92.20
49124;DHT22;48506;48.202;16.274;2024-01-15T07:09:56;1.50;92.20
49124;DHT22;48506;48.202;16.274;2024-01-15T07:12:22;1.50;92.20
49124;DHT22;48506;48.202;16.274;2024-01-15T07:14:49;1.50;92.10
49124;DHT22;48506;48.202;16.274;2024-01-15T07:17:15;1.60;92.10
49124;DHT22;48506;48.202;16.274;2024-01-15T07:19:41;1.70;92.00
49124;DHT22;48506;48.202;16.274;2024-01-15T07:22:07;1.60;92.00
49124;DHT22;48506;48.202;16.274;2024-01-15T07:24:33;1.70;91.90
49124;DHT22;48506;48.202;16.274;2024-01-15T07:27:02;1.80;91.60
49124;DHT22;48506;48.202;16.274;2024-01-15T07:29:30;1.90;91.60
49124;DHT22;48506;48.202;16.274;2024-01-15T07:31:59;2.00;91.30
49124;DHT22;48506;48.202;16.274;2024-01-15T07:34:24;2.00;91.30
49124;DHT22;48506;48.202;16.274;2024-01-15T07:36:50;2.00;91.40
49124;DHT22;48506;48.202;16.274;2024-01-15T07:39:17;2.10;91.40
49124;DHT22;48506;48.202;16.274;2024-01-15T07:41:43;2.10;91.10
49124;DHT22;48506;48.202;16.274;2024-01-15T07:44:09;2.10;91.10
49124;DHT22;48506;48.202;16.274;2024-01-15T07:46:35;2.00;91.40
49124;DHT22;48506;48.202;16.274;2024-01-15T07:49:01;2.00;91.40
49124;DHT22;48506;48.202;16.274;2024-01-15T07:51:27;2.00;91.30
49124;DHT22;48506;48.202;16.274;2024-01-15T07:53:54;2.10;91.30
49124;DHT22;48506;48.202;16.274;2024-01-15T07:56:21;2.10;91.20
49124;DHT22;48506;48.202;16.274;2024-01-15T07:58:47;2.20;91.40
49124;DHT22;48506;48.202;16.274;2024-01-15T08:01:13;2.20;91.30
49124;DHT22;48506;48.202;16.274;2024-01-15T08:03:39;2.30;91.30
49124;DHT22;48506;48.202;16.274;2024-01-15T08:06:05;2.30;91.20
49124;DHT22;48506;48.202;16.274;2024-01-15T08:08:31;2.30;91.30
49124;DHT22;48506;48.202;16.274;2024-01-15T08:10:57;2.40;91.30
49124;DHT22;48506;48.202;16.274;2024-01-15T08:13:23;2.50;91.30
49124;DHT22;48506;48.202;16.274;2024-01-15T08:15:52;2.50;91.30
49124;DHT22;48506;48.202;16.274;2024-01-15T08:18:18;2.60;91.00
49124;DHT22;48506;48.202;16.274;2024-01-15T08:20:44;2.60;91.00
49124;DHT22;48506;48.202;16.274;2024-01-15T08:23:10;2.50;91.00
49124;DHT22;48506;48.202;16.274;2024-01-15T08:25:36;2.50;90.90
49124;DHT22;48506;48.202;16.274;2024-01-15T08:28:01;2.50;90.80
49124;DHT22;48506;48.202;16.274;2024-01-15T08:30:27;2.50;90.80
49124;DHT22;48506;48.202;16.274;2024-01-15T08:32:55;2.60;90.80
49124;DHT22;48506;48.202;16.274;2024-01-15T08:35:21;2.70;90.70
49124;DHT22;48506;48.202;16.274;2024-01-15T08:37:52;2.70;90.80
49124;DHT22;48506;48.202;16.274;2024-01-15T08:40:18;2.70;90.60
49124;DHT22;48506;48.202;16.274;2024-01-15T08:42:44;2.70;90.60
49124;DHT22;48506;48.202;16.274;2024-01-15T08:45:13;2.80;90.80
49124;DHT22;48506;48.202;16.274;2024-01-15T08:47:39;2.90;90.50
49124;DHT22;48506;48.202;16.274;2024-01-15T08:50:06;3.10;90.70
49124;DHT22;48506;48.202;16.274;2024-01-15T08:52:35;3.40;90.70
49124;DHT22;48506;48.202;16.274;2024-01-15T08:55:01;3.60;90.00
49124;DHT22;48506;48.202;16.274;2024-01-15T08:57:27;3.90;90.00
49124;DHT22;48506;48.202;16.274;2024-01-15T08:59:53;4.20;89.40
49124;DHT22;48506;48.202;16.274;2024-01-15T09:02:19;4.40;88.40
49124;DHT22;48506;48.202;16.274;2024-01-15T09:04:46;4.40;87.20
49124;DHT22;48506;48.202;16.274;2024-01-15T09:07:12;4.40;87.20
49124;DHT22;48506;48.202;16.274;2024-01-15T09:09:38;4.30;87.20
49124;DHT22;48506;48.202;16.274;2024-01-15T09:12:04;4.30;87.60
49124;DHT22;48506;48.202;16.274;2024-01-15T09:14:30;4.30;87.50
49124;DHT22;48506;48.202;16.274;2024-01-15T09:16:55;4.20;87.00
49124;DHT22;48506;48.202;16.274;2024-01-15T09:19:22;4.00;87.60
49124;DHT22;48506;48.202;16.274;2024-01-15T09:21:48;3.80;88.70
49124;DHT22;48506;48.202;16.274;2024-01-15T09:24:14;3.70;88.80
49124;DHT22;48506;48.202;16.274;2024-01-15T09:26:40;3.60;89.30
49124;DHT22;48506;48.202;16.274;2024-01-15T09:29:06;3.60;89.40
49124;DHT22;48506;48.202;16.274;2024-01-15T09:31:31;3.50;90.00
49124;DHT22;48506;48.202;16.274;2024-01-15T09:33:57;3.50;90.10
49124;DHT22;48506;48.202;16.274;2024-01-15T09:36:25;3.40;90.40
49124;DHT22;48506;48.202;16.274;2024-01-15T09:38:52;3.50;90.50
49124;DHT22;48506;48.202;16.274;2024-01-15T09:41:18;3.60;90.50
49124;DHT22;48506;48.202;16.274;2024-01-15T09:43:45;3.70;90.10
49124;DHT22;48506;48.202;16.274;2024-01-15T09:46:11;3.90;90.10
49124;DHT22;48506;48.202;16.274;2024-01-15T09:48:37;4.00;90.20
49124;DHT22;48506;48.202;16.274;2024-01-15T09:51:06;4.30;90.30
49124;DHT22;48506;48.202;16.274;2024-01-15T09:53:33;4.60;90.00
49124;DHT22;48506;48.202;16.274;2024-01-15T09:55:59;4.90;88.50
49124;DHT22;48506;48.202;16.274;2024-01-15T09:58:25;5.10;89.00
49124;DHT22;48506;48.202;16.274;2024-01-15T10:00:52;5.30;88.40
49124;DHT22;48506;48.202;16.274;2024-01-15T10:03:19;5.40;87.70
49124;DHT22;48506;48.202;16.274;2024-01-15T10:05:44;5.50;86.90
49124;DHT22;48506;48.202;16.274;2024-01-15T10:08:11;5.50;86.50
49124;DHT22;48506;48.202;16.274;2024-01-15T10:10:37;5.50;87.10
49124;DHT22;48506;48.202;16.274;2024-01-15T10:13:04;5.60;87.30
49124;DHT22;48506;48.202;16.274;2024-01-15T10:15:34;5.60;86.00
49124;DHT22;48506;48.202;16.274;2024-01-15T10:18:02;5.70;86.70
49124;DHT22;48506;48.202;16.274;2024-01-15T10:20:29;6.00;86.00
49124;DHT22;48506;48.202;16.274;2024-01-15T10:22:58;6.10;85.80
49124;DHT22;48506;48.202;16.274;2024-01-15T10:25:24;6.00;85.50
49124;DHT22;48506;48.202;16.274;2024-01-15T10:28:02;6.00;85.10
49124;DHT22;48506;48.202;16.274;2024-01-15T10:30:28;5.90;85.70
49124;DHT22;48506;48.202;16.274;2024-01-15T10:33:02;6.00;85.30
49124;DHT22;48506;48.202;16.274;2024-01-15T10:35:33;6.00;85.50
49124;DHT22;48506;48.202;16.274;2024-01-15T10:38:00;6.10;84.90
49124;DHT22;48506;48.202;16.274;2024-01-15T10:40:26;6.20;84.90
49124;DHT22;48506;48.202;16.274;2024-01-15T10:42:52;6.20;83.50
49124;DHT22;48506;48.202;16.274;2024-01-15T10:45:19;6.10;84.20
49124;DHT22;48506;48.202;16.274;2024-01-15T10:47:45;6.20;84.30
49124;DHT22;48506;48.202;16.274;2024-01-15T10:50:11;6.10;83.60
49124;DHT22;48506;48.202;16.274;2024-01-15T10:52:39;6.10;84.10
49124;DHT22;48506;48.202;16.274;2024-01-15T10:55:10;6.10;84.30
49124;DHT22;48506;48.202;16.274;2024-01-15T10:57:39;6.10;83.50
49124;DHT22;48506;48.202;16.274;2024-01-15T11:00:05;6.10;84.20
49124;DHT22;48506;48.202;16.274;2024-01-15T11:02:36;6.10;84.90
49124;DHT22;48506;48.202;16.274;2024-01-15T11:05:03;6.30;85.50
49124;DHT22;48506;48.202;16.274;2024-01-15T11:07:32;6.50;83.10
49124;DHT22;48506;48.202;16.274;2024-01-15T11:09:58;6.50;83.50
49124;DHT22;48506;48.202;16.274;2024-01-15T11:12:24;6.50;82.80
49124;DHT22;48506;48.202;16.274;2024-01-15T11:14:51;6.50;83.40
49124;DHT22;48506;48.202;16.274;2024-01-15T11:17:18;6.60;84.10
49124;DHT22;48506;48.202;16.274;2024-01-15T11:19:50;6.60;83.30
49124;DHT22;48506;48.202;16.274;2024-01-15T11:25:03;6.70;84.00
49124;DHT22;48506;48.202;16.274;2024-01-15T11:27:49;6.70;83.50
49124;DHT22;48506;48.202;16.274;2024-01-15T11:30:19;6.80;83.80
49124;DHT22;48506;48.202;16.274;2024-01-15T11:32:48;6.80;83.40
49124;DHT22;48506;48.202;16.274;2024-01-15T11:35:14;6.80;83.80
49124;DHT22;48506;48.202;16.274;2024-01-15T11:40:21;6.80;83.10
49124;DHT22;48506;48.202;16.274;2024-01-15T11:42:48;6.90;83.20
49124;DHT22;48506;48.202;16.274;2024-01-15T11:45:19;6.70;83.30
49124;DHT22;48506;48.202;16.274;2024-01-15T11:48:13;6.60;84.30
49124;DHT22;48506;48.202;16.274;2024-01-15T11:53:40;6.30;84.70
49124;DHT22;48506;48.202;16.274;2024-01-15T11:56:15;6.10;85.50
49124;DHT22;48506;48.202;16.274;2024-01-15T11:58:45;6.00;86.20
49124;DHT22;48506;48.202;16.274;2024-01-15T12:01:11;5.90;86.70
49124;DHT22;48506;48.202;16.274;2024-01-15T12:03:37;5.80;87.20
49124;DHT22;48506;48.202;16.274;2024-01-15T12:06:06;5.80;86.90
49124;DHT22;48506;48.202;16.274;2024-01-15T12:08:32;5.90;87.20
49124;DHT22;48506;48.202;16.274;2024-01-15T12:10:58;6.00;86.60
49124;DHT22;48506;48.202;16.274;2024-01-15T12:13:24;6.00;86.50
49124;DHT22;48506;48.202;16.274;2024-01-15T12:15:50;6.20;86.80
49124;DHT22;48506;48.202;16.274;2024-01-15T12:18:17;6.40;85.80
49124;DHT22;48506;48.202;16.274;2024-01-15T12:20:44;6.50;85.70
49124;DHT22;48506;48.202;16.274;2024-01-15T12:23:12;6.70;85.20
49124;DHT22;48506;48.202;16.274;2024-01-15T12:25:39;7.00;85.40
49124;DHT22;48506;48.202;16.274;2024-01-15T12:28:06;7.30;85.00
49124;DHT22;48506;48.202;16.274;2024-01-15T12:30:34;7.40;82.70
49124;DHT22;48506;48.202;16.274;2024-01-15T12:33:05;7.30;82.70
49124;DHT22;48506;48.202;16.274;2024-01-15T12:35:32;7.20;81.80
49124;DHT22;48506;48.202;16.274;2024-01-15T12:38:02;6.90;81.90
49124;DHT22;48506;48.202;16.274;2024-01-15T12:40:29;6.80;83.20
49124;DHT22;48506;48.202;16.274;2024-01-15T12:42:56;6.70;83.10
49124;DHT22;48506;48.202;16.274;2024-01-15T12:45:22;6.60;83.20
49124;DHT22;48506;48.202;16.274;2024-01-15T12:47:48;6.70;83.40
49124;DHT22;48506;48.202;16.274;2024-01-15T12:50:14;6.70;83.70
49124;DHT22;48506;48.202;16.274;2024-01-15T12:52:41;6.70;83.30
49124;DHT22;48506;48.202;16.274;2024-01-15T12:55:09;6.60;83.80
49124;DHT22;48506;48.202;16.274;2024-01-15T12:57:36;6.70;84.00
49124;DHT22;48506;48.202;16.274;2024-01-15T13:00:03;7.00;82.70
49124;DHT22;48506;48.202;16.274;2024-01-15T13:02:36;6.90;81.30
49124;DHT22;48506;48.202;16.274;2024-01-15T13:05:03;6.60;82.60
49124;DHT22;48506;48.202;16.274;2024-01-15T13:07:30;6.30;83.40
49124;DHT22;48506;48.202;16.274;2024-01-15T13:09:56;6.00;82.50
49124;DHT22;48506;48.202;16.274;2024-01-15T13:12:22;5.80;83.70
49124;DHT22;48506;48.202;16.274;2024-01-15T13:14:50;5.90;83.80
49124;DHT22;48506;48.202;16.274;2024-01-15T13:17:16;6.00;83.70
49124;DHT22;48506;48.202;16.274;2024-01-15T13:19:42;6.10;83.50
49124;DHT22;48506;48.202;16.274;2024-01-15T13:22:08;6.00;82.90
49124;DHT22;48506;48.202;16.274;2024-01-15T13:24:35;6.00;83.00
49124;DHT22;48506;48.202;16.274;2024-01-15T13:27:03;5.90;82.30
49124;DHT22;48506;48.202;16.274;2024-01-15T13:29:30;5.80;82.70
49124;DHT22;48506;48.202;16.274;2024-01-15T13:31:57;5.90;82.40
49124;DHT22;48506;48.202;16.274;2024-01-15T13:34:23;6.20;82.70
49124;DHT22;48506;48.202;16.274;2024-01-15T13:36:48;6.90;81.80
49124;DHT22;48506;48.202;16.274;2024-01-15T13:39:16;7.60;79.60
49124;DHT22;48506;48.202;16.274;2024-01-15T13:41:48;7.80;77.50
49124;DHT22;48506;48.202;16.274;2024-01-15T13:44:14;7.40;76.80
49124;DHT22;48506;48.202;16.274;2024-01-15T13:46:40;7.10;78.40
49124;DHT22;48506;48.202;16.274;2024-01-15T13:49:06;7.10;78.90
49124;DHT22;48506;48.202;16.274;2024-01-15T13:51:32;7.20;78.10
49124;DHT22;48506;48.202;16.274;2024-01-15T13:53:58;7.20;78.20
49124;DHT22;48506;48.202;16.274;2024-01-15T13:56:24;7.20;78.40
49124;DHT22;48506;48.202;16.274;2024-01-15T13:58:50;7.00;78.40
49124;DHT22;48506;48.202;16.274;2024-01-15T14:01:17;6.80;78.30
49124;DHT22;48506;48.202;16.274;2024-01-15T14:03:44;6.40;78.80
49124;DHT22;48506;48.202;16.274;2024-01-15T14:06:10;6.20;79.60
49124;DHT22;48506;48.202;16.274;2024-01-15T14:08:37;6.00;80.00
49124;DHT22;48506;48.202;16.274;2024-01-15T14:11:03;5.90;80.40
49124;DHT22;48506;48.202;16.274;2024-01-15T14:13:31;5.80;80.00
49124;DHT22;48506;48.202;16.274;2024-01-15T14:15:58;5.70;80.50
49124;DHT22;48506;48.202;16.274;2024-01-15T14:18:24;5.60;81.10
49124;DHT22;48506;48.202;16.274;2024-01-15T14:20:50;5.70;81.10
49124;DHT22;48506;48.202;16.274;2024-01-15T14:23:16;5.80;80.70
49124;DHT22;48506;48.202;16.274;2024-01-15T14:25:41;5.90;81.50
49124;DHT22;48506;48.202;16.274;2024-01-15T14:28:07;6.30;80.60
49124;DHT22;48506;48.202;16.274;2024-01-15T14:30:33;6.40;79.10
49124;DHT22;48506;48.202;16.274;2024-01-15T14:32:59;6.30;78.80
49124;DHT22;48506;48.202;16.274;2024-01-15T14:35:25;6.10;79.20
49124;DHT22;48506;48.202;16.274;2024-01-15T14:37:51;5.90;79.50
49124;DHT22;48506;48.202;16.274;2024-01-15T14:40:17;5.60;80.40
49124;DHT22;48506;48.202;16.274;2024-01-15T14:42:43;5.40;81.10
49124;DHT22;48506;48.202;16.274;2024-01-15T14:45:09;5.10;81.30
49124;DHT22;48506;48.202;16.274;2024-01-15T14:47:38;4.90;82.00
49124;DHT22;48506;48.202;16.274;2024-01-15T14:50:06;4.70;82.60
49124;DHT22;48506;48.202;16.274;2024-01-15T14:52:32;4.50;83.20
49124;DHT22;48506;48.202;16.274;2024-01-15T14:55:00;4.40;83.80
49124;DHT22;48506;48.202;16.274;2024-01-15T14:57:26;4.20;84.20
49124;DHT22;48506;48.202;16.274;2024-01-15T14:59:52;4.10;84.40
49124;DHT22;48506;48.202;16.274;2024-01-15T15:02:19;4.00;84.80
49124;DHT22;48506;48.202;16.274;2024-01-15T15:04:45;3.90;85.20
49124;DHT22;48506;48.202;16.274;2024-01-15T15:07:11;3.90;85.50
49124;DHT22;48506;48.202;16.274;2024-01-15T15:09:37;3.80;85.90
49124;DHT22;48506;48.202;16.274;2024-01-15T15:12:05;3.70;86.10
49124;DHT22;48506;48.202;16.274;2024-01-15T15:14:32;3.70;86.40
49124;DHT22;48506;48.202;16.274;2024-01-15T15:17:05;3.70;87.20
49124;DHT22;48506;48.202;16.274;2024-01-15T15:19:31;3.60;86.80
49124;DHT22;48506;48.202;16.274;2024-01-15T15:21:58;3.60;87.00
49124;DHT22;48506;48.202;16.274;2024-01-15T15:24:24;3.60;87.00
49124;DHT22;48506;48.202;16.274;2024-01-15T15:26:50;3.60;87.00
49124;DHT22;48506;48.202;16.274;2024-01-15T15:29:16;3.60;87.10
49124;DHT22;48506;48.202;16.274;2024-01-15T15:31:46;3.60;87.10
49124;DHT22;48506;48.202;16.274;2024-01-15T15:34:11;3.50;87.00